Météo

Actualisé à 19h30, Lille

icon

T : 16 °C / H : 94 %
Pression : 1013 Hpa
Vent de nord : 19 Km/h
Faible Pluie
Peu de nuages à 1000 pieds
Nuages épars à 3100 pieds

2024/06/18 18:30 LFQQ 181830Z AUTO 01010KT 8000 -RA FEW010/// SCT031/// OVC064/// ///TCU 16/15 Q1013 TEMPO 3000 SHRA BKN005 BKN013CB

Mots clés

Internet web infographiste flyers illustrateur graphiste webmaster PAO assistance informatique logo image invitation affiche création réalisation conception site vitrine voeux carte visite publication publicité impression plaquette charte graphique identité visuelle maintenance freelance


CSS Valide ! Valid HTML 5.0
callicom.gif flo.jpg
logo-5.jpg logo.jpg
logo_Flodp2.jpg logo_les-dauphines-de-fretin1_couleur-Nb.jpg
sofetec.jpg